createdAt,value
2019-05-02T00:00:22.308Z,65.29
2019-05-02T00:01:22.742Z,65.29
2019-05-02T00:02:23.943Z,65.29
2019-05-02T00:03:23.593Z,64.24
2019-05-02T00:04:24.013Z,62.81
2019-05-02T00:05:27.424Z,64.34
2019-05-02T00:06:24.878Z,64.90
2019-05-02T00:07:25.298Z,65.38
2019-05-02T00:08:29.267Z,65.29
2019-05-02T00:09:26.146Z,64.90
2019-05-02T00:10:26.573Z,63.10
2019-05-02T00:11:27.002Z,63.86
2019-05-02T00:12:27.429Z,64.15
2019-05-02T00:13:27.857Z,63.76
2019-05-02T00:14:28.271Z,63.10
2019-05-02T00:15:33.045Z,64.72
2019-05-02T00:16:29.124Z,64.24
2019-05-02T00:17:29.560Z,64.24
2019-05-02T00:18:31.972Z,64.53
2019-05-02T00:19:30.408Z,63.67
2019-05-02T00:20:30.829Z,63.57
2019-05-02T00:21:33.009Z,63.57
2019-05-02T00:22:31.694Z,63.20
2019-05-02T00:23:32.120Z,62.15
2019-05-02T00:24:33.931Z,63.01
2019-05-02T00:25:32.962Z,62.43
2019-05-02T00:26:33.389Z,61.86
2019-05-02T00:27:37.707Z,62.72
2019-05-02T00:28:34.243Z,60.34
2019-05-02T00:29:34.683Z,61.86
2019-05-02T00:30:36.101Z,61.48
2019-05-02T00:31:35.518Z,60.82
2019-05-02T00:32:35.947Z,60.91
2019-05-02T00:33:36.379Z,60.24
2019-05-02T00:34:36.800Z,60.53
2019-05-02T00:35:40.815Z,60.53
2019-05-02T00:36:37.649Z,60.05
2019-05-02T00:37:38.078Z,60.44
2019-05-02T00:38:39.866Z,61.29
2019-05-02T00:39:38.931Z,61.38
2019-05-02T00:40:39.356Z,61.77
2019-05-02T00:41:40.489Z,61.86
2019-05-02T00:42:40.209Z,60.24
2019-05-02T00:43:40.635Z,60.82
2019-05-02T00:44:42.025Z,60.91
2019-05-02T00:45:41.488Z,60.72
2019-05-02T00:46:41.921Z,60.91
2019-05-02T00:47:47.514Z,61.77
2019-05-02T00:48:42.776Z,61.96
2019-05-02T00:49:43.188Z,61.00
2019-05-02T00:50:45.416Z,60.21
2019-05-02T00:51:44.130Z,61.67
2019-05-02T00:52:44.469Z,60.78
2019-05-02T00:53:48.405Z,60.02
2019-05-02T00:54:45.356Z,60.69
2019-05-02T00:55:45.774Z,59.93
2019-05-02T00:56:46.172Z,60.31
2019-05-02T00:57:50.789Z,60.50
2019-05-02T00:58:47.021Z,58.98
2019-05-02T00:59:47.453Z,58.69
2019-05-02T01:00:48.607Z,58.79
2019-05-02T01:01:48.306Z,59.45
2019-05-02T01:02:48.729Z,58.79
2019-05-02T01:03:51.977Z,59.45
2019-05-02T01:04:49.630Z,58.98
2019-05-02T01:05:50.013Z,59.17
2019-05-02T01:06:50.821Z,60.60
2019-05-02T01:07:50.868Z,60.60
2019-05-02T01:08:51.283Z,60.78
2019-05-02T01:09:51.717Z,60.31
2019-05-02T01:10:56.738Z,60.21
2019-05-02T01:11:52.564Z,60.12
2019-05-02T01:12:52.986Z,60.88
2019-05-02T01:13:55.820Z,61.19
2019-05-02T01:14:53.834Z,61.93
2019-05-02T01:15:54.262Z,63.48
2019-05-02T01:16:56.217Z,63.86
2019-05-02T01:17:55.121Z,63.48
2019-05-02T01:18:55.546Z,62.97
2019-05-02T01:19:55.971Z,63.67
2019-05-02T01:20:58.051Z,64.11
2019-05-02T01:21:56.816Z,65.06
2019-05-02T01:22:57.273Z,65.86
2019-05-02T01:23:58.963Z,66.05
2019-05-02T01:24:58.096Z,66.02
2019-05-02T01:25:58.522Z,65.83
2019-05-02T01:26:59.787Z,67.67
2019-05-02T01:27:59.377Z,67.86
2019-05-02T01:28:59.799Z,68.52
2019-05-02T01:30:01.438Z,68.15
2019-05-02T01:31:00.649Z,69.00
2019-05-02T01:32:01.090Z,69.76
2019-05-02T01:33:06.292Z,70.43
2019-05-02T01:34:01.925Z,69.19
2019-05-02T01:35:02.363Z,69.95
2019-05-02T01:36:06.569Z,70.43
2019-05-02T01:37:03.210Z,69.38
2019-05-02T01:38:03.637Z,68.81
2019-05-02T01:39:07.611Z,68.90
2019-05-02T01:40:04.486Z,69.48
2019-05-02T01:41:04.910Z,68.49
2019-05-02T01:42:05.446Z,68.68
2019-05-02T01:43:05.777Z,69.48
2019-05-02T01:44:06.195Z,69.48
2019-05-02T01:45:10.792Z,70.43
2019-05-02T01:46:07.042Z,69.35
2019-05-02T01:47:07.463Z,70.05
2019-05-02T01:48:09.757Z,71.28
2019-05-02T01:49:08.322Z,71.67
2019-05-02T01:50:08.761Z,71.28
2019-05-02T01:51:10.196Z,71.47
2019-05-02T01:52:09.602Z,71.95
2019-05-02T01:53:10.031Z,70.90
2019-05-02T01:54:11.391Z,71.09
2019-05-02T01:55:10.882Z,70.52
2019-05-02T01:56:11.301Z,71.86
2019-05-02T01:57:11.728Z,69.95
2019-05-02T01:58:14.997Z,70.77
2019-05-02T01:59:12.581Z,71.72
2019-05-02T02:00:13.002Z,70.77
2019-05-02T02:01:16.092Z,70.20
2019-05-02T02:02:13.857Z,69.44
2019-05-02T02:03:14.284Z,70.58
2019-05-02T02:04:16.171Z,71.82
2019-05-02T02:05:15.132Z,71.25
2019-05-02T02:06:15.562Z,72.58
2019-05-02T02:07:20.129Z,73.34
2019-05-02T02:08:16.404Z,73.53
2019-05-02T02:09:16.837Z,74.87
2019-05-02T02:10:19.786Z,74.39
2019-05-02T02:11:17.692Z,74.58
2019-05-02T02:12:18.118Z,74.39
2019-05-02T02:13:18.551Z,75.43
2019-05-02T02:14:19.066Z,74.58
2019-05-02T02:15:19.390Z,74.39
2019-05-02T02:16:19.822Z,74.29
2019-05-02T02:17:20.237Z,74.01
2019-05-02T02:18:22.079Z,74.96
2019-05-02T02:19:21.091Z,74.48
2019-05-02T02:20:21.515Z,74.96
2019-05-02T02:21:25.865Z,76.86
2019-05-02T02:22:22.365Z,77.24
2019-05-02T02:23:22.796Z,76.67
2019-05-02T02:24:25.148Z,76.57
2019-05-02T02:25:23.640Z,76.76
2019-05-02T02:26:24.074Z,77.24
2019-05-02T02:27:25.710Z,77.15
2019-05-02T02:28:24.927Z,77.15
2019-05-02T02:29:25.352Z,77.24
2019-05-02T02:30:26.607Z,77.81
2019-05-02T02:31:26.226Z,77.53
2019-05-02T02:32:28.555Z,78.29
2019-05-02T02:33:27.060Z,78.48
2019-05-02T02:34:30.257Z,78.77
2019-05-02T02:35:27.912Z,79.05
2019-05-02T02:36:34.545Z,78.57
2019-05-02T02:37:28.751Z,79.43
2019-05-02T02:38:33.491Z,78.67
2019-05-02T02:39:29.600Z,78.29
2019-05-02T02:40:33.692Z,78.86
2019-05-02T02:41:30.454Z,79.05
2019-05-02T02:42:31.880Z,79.05
2019-05-02T02:43:34.619Z,78.77
2019-05-02T02:44:33.787Z,78.48
2019-05-02T02:45:32.252Z,77.24
2019-05-02T02:46:37.913Z,78.57
2019-05-02T02:47:33.012Z,78.48
2019-05-02T02:48:39.996Z,79.24
2019-05-02T02:49:33.862Z,78.57
2019-05-02T02:50:36.766Z,78.67
2019-05-02T02:51:34.729Z,78.86
2019-05-02T02:52:37.898Z,79.05
2019-05-02T02:53:35.564Z,78.57
2019-05-02T02:54:36.448Z,78.19
2019-05-02T02:55:36.414Z,78.67
2019-05-02T02:56:40.439Z,77.24
2019-05-02T02:57:37.261Z,77.62
2019-05-02T02:58:45.188Z,76.48
2019-05-02T02:59:38.110Z,77.05
2019-05-02T03:00:45.141Z,76.39
2019-05-02T03:01:38.961Z,75.24
2019-05-02T03:02:47.704Z,75.05
2019-05-02T03:03:39.829Z,75.24
2019-05-02T03:04:44.263Z,74.77
2019-05-02T03:05:40.681Z,75.81
2019-05-02T03:06:45.046Z,77.62
2019-05-02T03:07:41.527Z,79.43
2019-05-02T03:08:46.089Z,80.95
2019-05-02T03:09:42.377Z,80.95
2019-05-02T03:10:45.059Z,82.00
2019-05-02T03:11:43.235Z,82.76
2019-05-02T03:12:43.656Z,82.57
2019-05-02T03:13:52.299Z,82.95
2019-05-02T03:14:47.081Z,82.95
2019-05-02T03:15:44.919Z,83.52
2019-05-02T03:16:47.020Z,84.00
2019-05-02T03:17:45.784Z,83.33
2019-05-02T03:18:46.201Z,83.33
2019-05-02T03:19:46.626Z,83.23
2019-05-02T03:20:47.058Z,82.95
2019-05-02T03:21:47.475Z,82.57
2019-05-02T03:22:47.901Z,81.24
2019-05-02T03:23:48.328Z,81.81
2019-05-02T03:24:48.772Z,81.05
2019-05-02T03:25:51.237Z,81.14
2019-05-02T03:26:55.399Z,80.47
2019-05-02T03:27:50.031Z,80.47
2019-05-02T03:28:57.610Z,80.00
2019-05-02T03:29:50.892Z,80.95
2019-05-02T03:30:51.311Z,81.14
2019-05-02T03:32:12.288Z,82.48
2019-05-02T03:33:04.643Z,81.43
2019-05-02T03:33:55.726Z,81.90
2019-05-02T03:34:54.208Z,82.67
2019-05-02T03:35:53.487Z,83.62
2019-05-02T03:36:53.887Z,84.52
2019-05-02T03:37:54.288Z,84.85
2019-05-02T03:38:54.715Z,84.56
2019-05-02T03:39:57.766Z,84.99
2019-05-02T03:40:55.557Z,84.85
2019-05-02T03:42:02.706Z,84.19
2019-05-02T03:42:56.426Z,84.38
2019-05-02T03:44:10.515Z,85.33
2019-05-02T03:45:03.859Z,85.85
2019-05-02T03:45:57.687Z,85.61
2019-05-02T03:47:02.346Z,85.75
2019-05-02T03:47:58.547Z,86.66
2019-05-02T03:49:06.789Z,87.04
2019-05-02T03:49:59.397Z,87.04
2019-05-02T03:50:59.823Z,86.94
2019-05-02T03:52:03.104Z,88.09
2019-05-02T03:53:00.671Z,88.56
2019-05-02T03:54:07.390Z,87.23
2019-05-02T03:55:01.523Z,87.42
2019-05-02T03:56:10.757Z,87.32
2019-05-02T03:57:02.386Z,88.09
2019-05-02T03:58:13.261Z,88.94
2019-05-02T03:59:03.224Z,87.99
2019-05-02T04:00:03.651Z,89.32
2019-05-02T04:01:04.128Z,88.46
2019-05-02T04:02:04.534Z,88.75
2019-05-02T04:03:04.935Z,88.75
2019-05-02T04:04:05.371Z,88.66
2019-05-02T04:05:05.785Z,89.61
2019-05-02T04:06:06.237Z,89.32
2019-05-02T04:07:06.633Z,89.42
2019-05-02T04:08:07.064Z,89.70
2019-05-02T04:09:07.515Z,89.89
2019-05-02T04:10:13.418Z,90.99
2019-05-02T04:11:08.344Z,89.99
2019-05-02T04:13:09.188Z,90.32
2019-05-02T04:14:17.456Z,89.89
2019-05-02T04:15:10.043Z,89.80
2019-05-02T04:16:15.244Z,89.51
2019-05-02T04:17:10.905Z,89.99
2019-05-02T04:18:15.556Z,89.89
2019-05-02T04:19:11.747Z,90.18
2019-05-02T04:20:12.727Z,89.89
2019-05-02T04:21:12.594Z,90.08
2019-05-02T04:22:13.021Z,90.66
2019-05-02T04:23:13.445Z,90.47
2019-05-02T04:24:16.014Z,90.61
2019-05-02T04:25:14.297Z,90.89
2019-05-02T04:26:14.722Z,91.13
2019-05-02T04:27:15.154Z,90.51
2019-05-02T04:28:15.590Z,90.47
2019-05-02T04:29:16.002Z,90.28
2019-05-02T04:30:16.429Z,91.46
2019-05-02T04:31:16.864Z,90.61
2019-05-02T04:32:17.284Z,90.94
2019-05-02T04:33:17.707Z,91.37
2019-05-02T04:34:18.222Z,91.70
2019-05-02T04:35:18.562Z,91.61
2019-05-02T04:36:18.989Z,91.46
2019-05-02T04:37:19.424Z,92.13
2019-05-02T04:38:23.882Z,91.84
2019-05-02T04:39:21.627Z,92.22
2019-05-02T04:40:20.688Z,91.32
2019-05-02T04:41:28.602Z,90.70
2019-05-02T04:42:23.199Z,91.65
2019-05-02T04:43:21.961Z,91.56
2019-05-02T04:44:22.417Z,92.32
2019-05-02T04:45:29.332Z,92.89
2019-05-02T04:46:28.028Z,92.99
2019-05-02T04:47:23.683Z,92.22
2019-05-02T04:48:24.090Z,92.94
2019-05-02T04:49:32.802Z,92.13
2019-05-02T04:50:25.628Z,92.27
2019-05-02T04:51:28.687Z,92.79
2019-05-02T04:52:28.595Z,92.56
2019-05-02T04:53:36.747Z,92.94
2019-05-02T04:54:31.552Z,92.75
2019-05-02T04:55:32.393Z,93.04
2019-05-02T04:56:28.327Z,92.79
2019-05-02T04:57:36.709Z,94.03
2019-05-02T04:58:33.440Z,94.32
2019-05-02T04:59:32.751Z,94.98
2019-05-02T05:00:29.208Z,94.60
2019-05-02T05:01:33.022Z,94.03
2019-05-02T05:02:36.670Z,94.89
2019-05-02T05:03:30.481Z,94.42
2019-05-02T05:04:33.220Z,95.17
2019-05-02T05:05:31.501Z,94.98
2019-05-02T05:06:31.763Z,94.79
2019-05-02T05:07:40.863Z,95.27
2019-05-02T05:08:32.617Z,95.17
2019-05-02T05:09:33.045Z,95.46
2019-05-02T05:10:39.935Z,95.27
2019-05-02T05:11:33.891Z,95.08
2019-05-02T05:12:40.012Z,95.36
2019-05-02T05:13:34.742Z,96.12
2019-05-02T05:14:39.115Z,95.84
2019-05-02T05:15:44.592Z,95.17
2019-05-02T05:16:37.327Z,95.17
2019-05-02T05:17:37.515Z,95.65
2019-05-02T05:18:37.867Z,94.98
2019-05-02T05:19:37.460Z,95.84
2019-05-02T05:20:40.115Z,95.84
2019-05-02T05:21:38.160Z,95.75
2019-05-02T05:22:44.227Z,95.65
2019-05-02T05:23:39.004Z,95.94
2019-05-02T05:24:42.322Z,95.56
2019-05-02T05:25:39.859Z,95.56
2019-05-02T05:26:42.929Z,95.75
2019-05-02T05:27:40.717Z,95.65
2019-05-02T05:28:44.411Z,95.46
2019-05-02T05:29:41.565Z,95.94
2019-05-02T05:30:45.438Z,95.75
2019-05-02T05:31:42.415Z,95.65
2019-05-02T05:32:42.842Z,96.12
2019-05-02T05:33:43.275Z,95.27
2019-05-02T05:34:43.705Z,94.93
2019-05-02T05:35:50.952Z,95.51
2019-05-02T05:36:44.612Z,95.56
2019-05-02T05:37:51.512Z,95.27
2019-05-02T05:38:47.672Z,96.03
2019-05-02T05:39:50.915Z,95.17
2019-05-02T05:40:47.873Z,95.46
2019-05-02T05:41:50.575Z,94.79
2019-05-02T05:42:48.082Z,95.08
2019-05-02T05:43:50.058Z,94.98
2019-05-02T05:44:48.315Z,94.98
2019-05-02T05:45:53.993Z,95.08
2019-05-02T05:46:49.507Z,95.17
2019-05-02T05:47:52.476Z,94.98
2019-05-02T05:48:49.663Z,94.79
2019-05-02T05:49:52.258Z,94.89
2019-05-02T05:50:50.513Z,94.51
2019-05-02T05:51:54.319Z,95.36
2019-05-02T05:52:51.967Z,94.89
2019-05-02T05:53:52.399Z,95.36
2019-05-02T05:54:52.224Z,95.36
2019-05-02T05:55:53.579Z,95.65
2019-05-02T05:56:53.072Z,95.46
2019-05-02T05:57:59.465Z,96.41
2019-05-02T05:58:53.945Z,95.46
2019-05-02T05:59:54.363Z,95.84
2019-05-02T06:00:56.536Z,95.27
2019-05-02T06:01:55.216Z,95.75
2019-05-02T06:03:01.211Z,95.46
2019-05-02T06:03:58.080Z,96.03
2019-05-02T06:05:02.516Z,95.94
2019-05-02T06:05:57.983Z,95.79
2019-05-02T06:06:59.551Z,96.17
2019-05-02T06:07:57.769Z,96.46
2019-05-02T06:08:58.188Z,96.17
2019-05-02T06:10:02.199Z,95.60
2019-05-02T06:10:59.040Z,95.60
2019-05-02T06:11:59.466Z,97.13
2019-05-02T06:12:59.896Z,96.55
2019-05-02T06:14:00.325Z,96.17
2019-05-02T06:15:01.633Z,96.55
2019-05-02T06:16:03.034Z,96.46
2019-05-02T06:17:01.599Z,96.46
2019-05-02T06:18:04.726Z,96.55
2019-05-02T06:19:02.465Z,96.84
2019-05-02T06:20:02.888Z,96.36
2019-05-02T06:21:08.568Z,96.84
2019-05-02T06:22:03.741Z,96.46
2019-05-02T06:23:04.168Z,96.84
2019-05-02T06:24:04.593Z,95.79
2019-05-02T06:25:08.883Z,96.22
2019-05-02T06:26:08.075Z,95.79
2019-05-02T06:27:05.871Z,95.89
2019-05-02T06:28:06.847Z,96.08
2019-05-02T06:29:06.760Z,95.89
2019-05-02T06:30:07.159Z,95.98
2019-05-02T06:31:08.652Z,95.41
2019-05-02T06:32:08.007Z,95.89
2019-05-02T06:33:08.436Z,96.27
2019-05-02T06:34:09.394Z,96.75
2019-05-02T06:35:09.286Z,97.03
2019-05-02T06:36:09.715Z,96.46
2019-05-02T06:37:13.422Z,96.36
2019-05-02T06:38:10.565Z,96.55
2019-05-02T06:39:10.992Z,96.12
2019-05-02T06:40:11.424Z,97.13
2019-05-02T06:41:16.121Z,96.89
2019-05-02T06:42:12.280Z,96.12
2019-05-02T06:43:12.713Z,97.17
2019-05-02T06:44:13.134Z,97.56
2019-05-02T06:45:13.559Z,97.27
2019-05-02T06:46:16.449Z,96.98
2019-05-02T06:47:14.420Z,97.17
2019-05-02T06:48:17.749Z,97.56
2019-05-02T06:49:15.264Z,96.84
2019-05-02T06:50:15.690Z,95.89
2019-05-02T06:51:19.606Z,96.98
2019-05-02T06:52:16.544Z,97.17
2019-05-02T06:53:16.975Z,97.08
2019-05-02T06:54:18.026Z,96.51
2019-05-02T06:55:17.831Z,96.70
2019-05-02T06:56:18.258Z,96.70
2019-05-02T06:57:19.035Z,96.98
2019-05-02T06:58:19.109Z,97.27
2019-05-02T06:59:20.317Z,97.56
2019-05-02T07:00:19.965Z,97.46
2019-05-02T07:01:21.141Z,97.41
2019-05-02T07:02:20.818Z,96.70
2019-05-02T07:03:21.243Z,96.51
2019-05-02T07:04:22.917Z,97.17
2019-05-02T07:05:27.248Z,97.27
2019-05-02T07:06:22.855Z,97.36
2019-05-02T07:07:25.132Z,97.36
2019-05-02T07:08:23.403Z,96.89
2019-05-02T07:09:23.893Z,96.98
2019-05-02T07:10:25.411Z,96.98
2019-05-02T07:11:24.668Z,97.08
2019-05-02T07:12:25.099Z,96.80
2019-05-02T07:13:25.527Z,96.98
2019-05-02T07:14:25.953Z,96.51
2019-05-02T07:15:26.407Z,96.03
2019-05-02T07:16:37.647Z,96.60
2019-05-02T07:17:32.233Z,96.70
2019-05-02T07:18:27.668Z,96.89
2019-05-02T07:19:29.377Z,96.98
2019-05-02T07:20:28.518Z,96.51
2019-05-02T07:21:28.943Z,96.51
2019-05-02T07:22:33.246Z,96.32
2019-05-02T07:23:29.797Z,95.94
2019-05-02T07:24:31.050Z,95.84
2019-05-02T07:25:30.660Z,95.75
2019-05-02T07:26:31.080Z,96.41
2019-05-02T07:27:33.588Z,96.22
2019-05-02T07:28:31.982Z,95.94
2019-05-02T07:29:32.367Z,95.75
2019-05-02T07:30:35.136Z,96.70
2019-05-02T07:31:33.223Z,95.84
2019-05-02T07:32:33.654Z,95.08
2019-05-02T07:33:37.548Z,95.84
2019-05-02T07:34:34.512Z,95.46
2019-05-02T07:35:34.944Z,95.17
2019-05-02T07:36:36.555Z,96.36
2019-05-02T07:37:35.823Z,96.17
2019-05-02T07:38:36.227Z,96.17
2019-05-02T07:39:40.870Z,95.79
2019-05-02T07:40:37.075Z,95.46
2019-05-02T07:41:37.501Z,95.89
2019-05-02T07:42:41.758Z,94.70
2019-05-02T07:43:38.361Z,95.08
2019-05-02T07:44:38.784Z,95.79
2019-05-02T07:45:40.379Z,95.70
2019-05-02T07:46:51.150Z,95.89
2019-05-02T07:47:42.082Z,96.36
2019-05-02T07:48:43.535Z,96.27
2019-05-02T07:49:40.927Z,96.27
2019-05-02T07:50:46.315Z,96.17
2019-05-02T07:51:41.780Z,96.08
2019-05-02T07:52:42.214Z,95.89
2019-05-02T07:53:44.460Z,95.08
2019-05-02T07:54:43.061Z,95.32
2019-05-02T07:55:43.491Z,95.22
2019-05-02T07:56:43.922Z,95.22
2019-05-02T07:57:44.354Z,95.79
2019-05-02T07:58:48.003Z,96.17
2019-05-02T07:59:45.201Z,95.70
2019-05-02T08:00:45.637Z,95.79
2019-05-02T08:01:49.672Z,95.41
2019-05-02T08:02:46.491Z,95.03
2019-05-02T08:03:46.917Z,95.79
2019-05-02T08:04:47.345Z,95.41
2019-05-02T08:05:47.772Z,95.61
2019-05-02T08:06:48.199Z,95.41
2019-05-02T08:07:53.276Z,95.51
2019-05-02T08:08:49.053Z,96.08
2019-05-02T08:09:49.491Z,95.61
2019-05-02T08:10:53.814Z,95.70
2019-05-02T08:11:50.352Z,95.32
2019-05-02T08:12:50.769Z,95.79
2019-05-02T08:13:55.789Z,94.93
2019-05-02T08:14:51.631Z,95.79
2019-05-02T08:15:52.429Z,95.79
2019-05-02T08:17:05.013Z,95.27
2019-05-02T08:17:53.733Z,94.56
2019-05-02T08:18:53.334Z,95.03
2019-05-02T08:19:53.763Z,95.12
2019-05-02T08:20:56.075Z,94.74
2019-05-02T08:21:54.624Z,95.32
2019-05-02T08:22:55.048Z,95.32
2019-05-02T08:23:57.169Z,95.27
2019-05-02T08:24:55.906Z,95.17
2019-05-02T08:25:56.335Z,95.46
2019-05-02T08:26:58.222Z,94.17
2019-05-02T08:27:57.193Z,94.08
2019-05-02T08:28:57.619Z,92.89
2019-05-02T08:30:00.115Z,93.60
2019-05-02T08:30:58.477Z,93.98
2019-05-02T08:31:58.911Z,94.17
2019-05-02T08:32:59.334Z,93.22
2019-05-02T08:33:59.767Z,93.32
2019-05-02T08:35:00.193Z,93.88
2019-05-02T08:36:00.622Z,93.51
2019-05-02T08:37:03.207Z,92.08
2019-05-02T08:38:01.474Z,92.74
2019-05-02T08:39:01.903Z,93.41
2019-05-02T08:40:05.436Z,93.51
2019-05-02T08:41:02.804Z,93.60
2019-05-02T08:42:03.186Z,91.65
2019-05-02T08:43:08.963Z,91.13
2019-05-02T08:44:04.039Z,92.46
2019-05-02T08:45:04.470Z,93.70
2019-05-02T08:46:09.523Z,93.22
2019-05-02T08:47:18.135Z,92.17
2019-05-02T08:48:06.550Z,93.03
2019-05-02T08:49:06.191Z,94.22
2019-05-02T08:50:07.788Z,94.41
2019-05-02T08:51:07.056Z,94.12
2019-05-02T08:52:07.473Z,94.03
2019-05-02T08:53:07.903Z,95.37
2019-05-02T08:54:08.329Z,94.70
2019-05-02T08:55:09.849Z,94.89
2019-05-02T08:56:09.185Z,94.22
2019-05-02T08:57:09.626Z,94.12
2019-05-02T08:58:14.389Z,94.79
2019-05-02T08:59:10.464Z,93.55
2019-05-02T09:00:10.910Z,94.22
2019-05-02T09:01:13.659Z,94.12
2019-05-02T09:02:11.749Z,93.08
2019-05-02T09:03:12.188Z,94.60
2019-05-02T09:04:12.621Z,94.60
2019-05-02T09:05:13.047Z,95.37
2019-05-02T09:06:17.191Z,94.89
2019-05-02T09:07:13.967Z,94.79
2019-05-02T09:08:16.561Z,95.17
2019-05-02T09:09:14.756Z,94.89
2019-05-02T09:10:15.187Z,95.37
2019-05-02T09:11:15.863Z,95.46
2019-05-02T09:12:16.042Z,95.65
2019-05-02T09:13:23.519Z,95.17
2019-05-02T09:14:16.905Z,95.46
2019-05-02T09:15:17.331Z,95.41
2019-05-02T09:16:21.558Z,96.17
2019-05-02T09:17:18.190Z,95.89
2019-05-02T09:18:18.650Z,95.65
2019-05-02T09:19:21.581Z,95.56
2019-05-02T09:20:20.952Z,96.22
2019-05-02T09:21:21.886Z,96.32
2019-05-02T09:22:22.078Z,95.70
2019-05-02T09:23:22.696Z,96.13
2019-05-02T09:24:23.804Z,96.37
2019-05-02T09:25:22.076Z,95.75
2019-05-02T09:26:33.240Z,95.89
2019-05-02T09:27:22.596Z,96.27
2019-05-02T09:28:25.390Z,96.80
2019-05-02T09:29:23.343Z,96.46
2019-05-02T09:30:25.868Z,95.75
2019-05-02T09:31:24.204Z,96.17
2019-05-02T09:32:26.325Z,96.66
2019-05-02T09:33:25.067Z,96.84
2019-05-02T09:34:26.826Z,96.84
2019-05-02T09:35:25.920Z,96.66
2019-05-02T09:36:26.350Z,97.42
2019-05-02T09:37:26.786Z,97.22
2019-05-02T09:38:27.209Z,96.89
2019-05-02T09:39:34.712Z,97.22
2019-05-02T09:40:28.065Z,97.47
2019-05-02T09:41:34.509Z,97.27
2019-05-02T09:42:28.926Z,97.56
2019-05-02T09:43:34.038Z,97.13
2019-05-02T09:44:29.787Z,96.46
2019-05-02T09:45:33.366Z,96.61
2019-05-02T09:46:32.484Z,96.84
2019-05-02T09:47:35.231Z,97.03
2019-05-02T09:48:31.886Z,96.66
2019-05-02T09:49:32.398Z,96.22
2019-05-02T09:50:34.828Z,96.46
2019-05-02T09:51:32.801Z,96.98
2019-05-02T09:52:39.236Z,97.03
2019-05-02T09:53:33.656Z,96.94
2019-05-02T09:54:37.117Z,96.75
2019-05-02T09:55:34.512Z,97.42
2019-05-02T09:56:34.951Z,97.03
2019-05-02T09:57:35.380Z,96.84
2019-05-02T09:58:35.803Z,97.13
2019-05-02T09:59:36.267Z,97.47
2019-05-02T10:00:36.665Z,97.56
2019-05-02T10:01:37.094Z,98.23
2019-05-02T10:02:37.531Z,98.03
2019-05-02T10:03:37.959Z,97.32
2019-05-02T10:04:41.535Z,98.13
2019-05-02T10:05:38.824Z,97.85
2019-05-02T10:06:39.246Z,97.94
2019-05-02T10:07:41.694Z,97.22
2019-05-02T10:08:43.449Z,97.85
2019-05-02T10:09:42.335Z,98.90
2019-05-02T10:10:43.525Z,98.32
2019-05-02T10:11:41.807Z,98.52
2019-05-02T10:12:42.707Z,98.13
2019-05-02T10:13:42.494Z,98.23
2019-05-02T10:14:42.687Z,98.13
2019-05-02T10:15:43.122Z,98.61
2019-05-02T10:16:43.547Z,98.52
2019-05-02T10:17:46.773Z,98.23
2019-05-02T10:18:44.423Z,98.90
2019-05-02T10:19:49.576Z,98.47
2019-05-02T10:20:45.269Z,98.57
2019-05-02T10:21:46.868Z,98.94
2019-05-02T10:22:46.128Z,98.52
2019-05-02T10:23:46.562Z,98.75
2019-05-02T10:24:46.990Z,98.57
2019-05-02T10:25:47.431Z,98.13
2019-05-02T10:26:47.850Z,98.80
2019-05-02T10:27:48.286Z,98.27
2019-05-02T10:28:50.474Z,98.27
2019-05-02T10:29:49.148Z,98.42
2019-05-02T10:30:52.731Z,98.03
2019-05-02T10:31:50.019Z,98.71
2019-05-02T10:32:52.924Z,98.42
2019-05-02T10:33:52.758Z,99.08
2019-05-02T10:34:53.124Z,98.52
2019-05-02T10:35:52.511Z,98.99
2019-05-02T10:36:58.594Z,99.28
2019-05-02T10:37:52.591Z,98.71
2019-05-02T10:38:54.686Z,98.52
2019-05-02T10:39:55.811Z,98.90
2019-05-02T10:41:01.255Z,98.13
2019-05-02T10:41:57.453Z,99.18
2019-05-02T10:42:54.740Z,98.94
2019-05-02T10:43:57.658Z,99.08
2019-05-02T10:44:55.609Z,98.94
2019-05-02T10:45:56.605Z,98.90
2019-05-02T10:46:56.460Z,98.94
2019-05-02T10:47:56.897Z,98.52
2019-05-02T10:48:57.325Z,99.04
2019-05-02T10:49:57.752Z,98.94
2019-05-02T10:50:58.200Z,98.75
2019-05-02T10:51:58.613Z,99.18
2019-05-02T10:53:05.438Z,98.80
2019-05-02T10:53:59.474Z,98.42
2019-05-02T10:55:02.495Z,99.08
2019-05-02T10:56:00.335Z,98.71
2019-05-02T10:57:02.329Z,99.08
2019-05-02T10:58:01.970Z,98.90
2019-05-02T10:59:02.240Z,98.90
2019-05-02T11:00:03.219Z,99.08
2019-05-02T11:01:02.490Z,99.37
2019-05-02T11:02:02.922Z,99.18
2019-05-02T11:03:03.345Z,98.90
2019-05-02T11:04:03.778Z,99.57
2019-05-02T11:05:04.211Z,98.80
2019-05-02T11:06:07.587Z,98.23
2019-05-02T11:07:05.070Z,99.18
2019-05-02T11:08:06.488Z,98.90
2019-05-02T11:09:06.511Z,98.90
2019-05-02T11:10:06.918Z,99.18
2019-05-02T11:11:06.792Z,98.99
2019-05-02T11:12:07.218Z,99.08
2019-05-02T11:13:07.646Z,99.37
2019-05-02T11:14:08.090Z,99.08
2019-05-02T11:15:08.510Z,99.08
2019-05-02T11:16:08.943Z,99.37
2019-05-02T11:17:13.980Z,99.18
2019-05-02T11:18:09.804Z,99.28
2019-05-02T11:19:10.228Z,98.99
2019-05-02T11:20:12.313Z,98.94
2019-05-02T11:21:12.200Z,98.99
2019-05-02T11:22:12.157Z,99.18
2019-05-02T11:23:12.749Z,98.80
2019-05-02T11:24:14.371Z,99.08
2019-05-02T11:25:12.804Z,98.32
2019-05-02T11:26:14.540Z,99.08
2019-05-02T11:27:13.661Z,98.90
2019-05-02T11:28:14.121Z,98.85
2019-05-02T11:29:14.542Z,98.80
2019-05-02T11:30:16.743Z,98.13
2019-05-02T11:31:15.384Z,99.18
2019-05-02T11:32:15.816Z,99.57
2019-05-02T11:33:16.242Z,98.90
2019-05-02T11:34:16.671Z,98.52
2019-05-02T11:35:17.100Z,98.99
2019-05-02T11:36:17.542Z,99.08
2019-05-02T11:37:17.962Z,99.08
2019-05-02T11:38:36.130Z,99.14
2019-05-02T11:39:26.006Z,98.94
2019-05-02T11:40:19.253Z,99.23
2019-05-02T11:41:19.689Z,99.04
2019-05-02T11:42:23.233Z,99.23
2019-05-02T11:43:22.305Z,99.23
2019-05-02T11:44:22.591Z,99.04
2019-05-02T11:45:22.698Z,99.08
2019-05-02T11:46:22.244Z,99.37
2019-05-02T11:47:26.501Z,99.28
2019-05-02T11:48:22.720Z,99.47
2019-05-02T11:49:23.129Z,99.37
2019-05-02T11:50:26.608Z,99.18
2019-05-02T11:51:23.986Z,99.08
2019-05-02T11:52:27.533Z,99.18
2019-05-02T11:53:28.967Z,99.37
2019-05-02T11:54:27.678Z,99.18
2019-05-02T11:55:29.001Z,99.23
2019-05-02T11:56:26.134Z,99.08
2019-05-02T11:57:28.912Z,99.47
2019-05-02T11:58:26.996Z,99.23
2019-05-02T11:59:29.132Z,99.43
2019-05-02T12:00:27.852Z,99.71
2019-05-02T12:01:35.801Z,99.33
2019-05-02T12:02:28.714Z,99.80
2019-05-02T12:03:35.495Z,99.23
2019-05-02T12:04:29.594Z,98.75
2019-05-02T12:05:31.782Z,99.33
2019-05-02T12:06:30.441Z,99.90
2019-05-02T12:07:32.435Z,99.99
2019-05-02T12:08:31.896Z,99.80
2019-05-02T12:09:31.918Z,99.43
2019-05-02T12:10:36.439Z,99.62
2019-05-02T12:11:32.587Z,99.80
2019-05-02T12:12:36.330Z,99.80
2019-05-02T12:13:33.456Z,99.14
2019-05-02T12:14:36.327Z,99.62
2019-05-02T12:15:34.314Z,99.57
2019-05-02T12:16:34.744Z,99.48
2019-05-02T12:17:35.181Z,99.62
2019-05-02T12:18:35.603Z,99.66
2019-05-02T12:19:36.046Z,99.66
2019-05-02T12:20:36.875Z,99.48
2019-05-02T12:21:39.232Z,98.61
2019-05-02T12:22:37.341Z,99.43
2019-05-02T12:23:37.764Z,98.71
2019-05-02T12:24:40.906Z,99.43
2019-05-02T12:25:38.637Z,99.90
2019-05-02T12:26:39.060Z,99.80
2019-05-02T12:27:39.490Z,99.52
2019-05-02T12:28:39.920Z,99.66
2019-05-02T12:29:42.292Z,99.48
2019-05-02T12:30:41.900Z,98.57
2019-05-02T12:31:42.672Z,98.57
2019-05-02T12:32:42.674Z,98.47
2019-05-02T12:33:42.631Z,98.66
2019-05-02T12:34:42.550Z,99.04
2019-05-02T12:35:43.337Z,99.52
2019-05-02T12:36:43.378Z,98.57
2019-05-02T12:37:47.029Z,99.38
2019-05-02T12:38:44.239Z,99.09
2019-05-02T12:39:44.672Z,99.48
2019-05-02T12:40:45.101Z,99.66
2019-05-02T12:41:45.913Z,99.66
2019-05-02T12:42:45.966Z,99.76
2019-05-02T12:43:46.404Z,99.99
2019-05-02T12:44:46.827Z,99.99
2019-05-02T12:45:47.259Z,99.99
2019-05-02T12:46:47.689Z,99.99
2019-05-02T12:47:48.125Z,99.99
2019-05-02T12:48:48.570Z,99.85
2019-05-02T12:49:49.001Z,99.90
2019-05-02T12:50:49.428Z,99.99
2019-05-02T12:51:49.852Z,99.99
2019-05-02T12:52:52.037Z,99.99
2019-05-02T12:53:52.742Z,99.76
2019-05-02T12:54:52.555Z,99.48
2019-05-02T12:55:52.762Z,99.90
2019-05-02T12:56:52.826Z,99.99
2019-05-02T12:57:52.497Z,99.33
2019-05-02T12:58:53.184Z,99.52